Terminal Aerodrome Forecast
Issued by NWS Wilmington, OH

Current Version | Previous Version | Graphics & Text | Print | Product List | Glossary On
Versions: 1 2 3 4 5 6 7 8 9 10 11 12 13 14 15 16 17 18 19 20 21 22 23 24 25 26 27 28 29 30
000
FTUS41 KILN 230500
TAFILN
TAF
KILN 230535Z 2306/2406 14008KT 5SM -SHRA BR SCT030 OVC060
     FM230800 17009KT P6SM VCSH BKN028 OVC050
     FM231000 17010KT P6SM OVC012
     FM232100 12005KT 5SM -SHRA BR OVC010
     FM240200 13005KT 5SM BR OVC015=

USA.gov is the U.S. government's official web portal to all federal, state and local government web resources and services.